createdAt,value
2022-09-30T00:01:17.750Z,171.73
2022-09-30T00:03:48.252Z,161.07
2022-09-30T00:06:16.880Z,144.77
2022-09-30T00:08:44.947Z,134.20
2022-09-30T00:11:16.390Z,121.87
2022-09-30T00:13:45.830Z,133.33
2022-09-30T00:16:15.754Z,140.93
2022-09-30T00:18:44.660Z,121.00
2022-09-30T00:21:13.684Z,122.93
2022-09-30T00:23:41.708Z,177.77
2022-09-30T00:26:13.034Z,143.93
2022-09-30T00:28:43.891Z,165.00
2022-09-30T00:31:14.873Z,159.83
2022-09-30T00:33:43.328Z,159.77
2022-09-30T00:36:12.142Z,138.20
2022-09-30T00:38:40.114Z,134.70
2022-09-30T00:41:08.157Z,134.10
2022-09-30T00:43:43.312Z,163.90
2022-09-30T00:46:18.557Z,153.63
2022-09-30T00:48:47.503Z,169.20
2022-09-30T00:51:15.460Z,177.43
2022-09-30T00:54:10.340Z,146.70
2022-09-30T00:56:40.986Z,133.40
2022-09-30T00:59:13.505Z,147.83
2022-09-30T01:01:42.622Z,130.20
2022-09-30T01:04:13.232Z,159.30
2022-09-30T01:06:41.505Z,144.80
2022-09-30T01:09:09.968Z,138.10
2022-09-30T01:11:38.116Z,143.43
2022-09-30T01:14:07.787Z,136.57
2022-09-30T01:16:55.696Z,146.53
2022-09-30T01:19:48.848Z,122.90
2022-09-30T01:22:23.353Z,128.13
2022-09-30T01:25:33.897Z,174.43
2022-09-30T01:28:15.009Z,145.00
2022-09-30T01:30:56.764Z,176.37
2022-09-30T01:33:34.943Z,156.40
2022-09-30T01:36:28.623Z,140.67
2022-09-30T01:39:05.788Z,159.67
2022-09-30T01:41:42.317Z,188.73
2022-09-30T01:44:15.640Z,187.53
2022-09-30T01:46:47.708Z,173.83
2022-09-30T01:49:22.284Z,159.00
2022-09-30T01:51:57.066Z,177.00
2022-09-30T01:54:28.900Z,141.13
2022-09-30T01:57:00.232Z,165.27
2022-09-30T01:59:32.750Z,178.37
2022-09-30T02:02:08.305Z,180.93
2022-09-30T02:04:40.389Z,149.53
2022-09-30T02:07:12.284Z,150.70
2022-09-30T02:09:42.757Z,153.30
2022-09-30T02:12:15.116Z,154.33
2022-09-30T02:14:45.725Z,157.83
2022-09-30T02:17:24.544Z,179.30
2022-09-30T02:19:55.832Z,149.57
2022-09-30T02:22:27.200Z,146.47
2022-09-30T02:24:59.051Z,151.57
2022-09-30T02:27:30.421Z,130.90
2022-09-30T02:30:00.869Z,136.77
2022-09-30T02:32:32.964Z,126.53
2022-09-30T02:35:05.315Z,170.10
2022-09-30T02:37:35.877Z,140.40
2022-09-30T02:40:08.101Z,156.00
2022-09-30T02:42:36.132Z,170.37
2022-09-30T02:45:08.685Z,167.93
2022-09-30T02:47:47.280Z,182.73
2022-09-30T02:50:19.718Z,143.93
2022-09-30T02:52:54.713Z,138.40
2022-09-30T02:55:29.430Z,209.10
2022-09-30T02:58:01.401Z,183.23
2022-09-30T03:00:30.281Z,163.13
2022-09-30T03:03:01.137Z,147.80
2022-09-30T03:05:29.394Z,143.67
2022-09-30T03:07:57.770Z,188.43
2022-09-30T03:10:26.079Z,161.80
2022-09-30T03:13:07.231Z,176.17
2022-09-30T03:15:43.168Z,163.87
2022-09-30T03:18:24.733Z,157.13
2022-09-30T03:21:01.878Z,142.50
2022-09-30T03:23:43.931Z,172.10
2022-09-30T03:26:19.321Z,135.73
2022-09-30T03:28:54.343Z,151.50
2022-09-30T03:31:27.486Z,149.27
2022-09-30T03:34:01.424Z,129.07
2022-09-30T03:36:35.440Z,156.60
2022-09-30T03:39:09.289Z,134.10
2022-09-30T03:41:41.412Z,147.20
2022-09-30T03:44:12.981Z,149.13
2022-09-30T03:46:43.862Z,138.00
2022-09-30T03:49:15.688Z,131.20
2022-09-30T03:51:43.814Z,134.20
2022-09-30T03:54:13.653Z,179.40
2022-09-30T03:56:43.312Z,137.03
2022-09-30T03:59:13.516Z,160.53
2022-09-30T04:01:41.616Z,134.20
2022-09-30T04:04:09.877Z,175.60
2022-09-30T04:06:39.260Z,119.50
2022-09-30T04:09:07.306Z,174.77
2022-09-30T04:11:35.405Z,200.10
2022-09-30T04:14:03.798Z,180.70
2022-09-30T04:16:32.089Z,145.60
2022-09-30T04:19:00.384Z,188.53
2022-09-30T04:21:29.079Z,167.17
2022-09-30T04:23:58.519Z,171.90
2022-09-30T04:26:26.548Z,140.37
2022-09-30T04:28:58.145Z,141.17
2022-09-30T04:31:26.519Z,170.63
2022-09-30T04:33:57.006Z,127.17
2022-09-30T04:36:25.087Z,180.73
2022-09-30T04:38:53.574Z,135.00
2022-09-30T04:41:23.205Z,121.90
2022-09-30T04:43:51.215Z,140.33
2022-09-30T04:46:20.969Z,125.47
2022-09-30T04:48:48.997Z,116.47
2022-09-30T04:51:18.850Z,130.60
2022-09-30T04:53:47.757Z,119.67
2022-09-30T04:56:16.759Z,130.60
2022-09-30T04:58:46.854Z,139.67
2022-09-30T05:01:16.251Z,153.20
2022-09-30T05:03:44.828Z,128.83
2022-09-30T05:06:13.212Z,179.57
2022-09-30T05:08:45.692Z,141.17
2022-09-30T05:11:16.573Z,134.63
2022-09-30T05:13:46.474Z,157.83
2022-09-30T05:16:15.922Z,178.70
2022-09-30T05:18:46.228Z,181.43
2022-09-30T05:21:15.349Z,190.17
2022-09-30T05:23:43.541Z,156.87
2022-09-30T05:26:12.784Z,174.10
2022-09-30T05:28:41.183Z,160.97
2022-09-30T05:31:12.329Z,186.50
2022-09-30T05:33:41.811Z,140.90
2022-09-30T05:36:13.602Z,153.73
2022-09-30T05:38:41.838Z,155.33
2022-09-30T05:41:11.474Z,159.53
2022-09-30T05:43:40.417Z,193.53
2022-09-30T05:46:10.196Z,151.27
2022-09-30T05:48:38.198Z,182.20
2022-09-30T05:51:07.531Z,161.70
2022-09-30T05:53:38.682Z,163.43
2022-09-30T05:56:07.423Z,174.70
2022-09-30T05:58:35.582Z,161.03
2022-09-30T06:01:12.917Z,145.50
2022-09-30T06:03:42.968Z,143.87
2022-09-30T06:06:11.483Z,164.83
2022-09-30T06:08:40.333Z,161.43
2022-09-30T06:11:12.762Z,166.87
2022-09-30T06:13:41.523Z,150.63
2022-09-30T06:16:10.447Z,148.57
2022-09-30T06:18:41.131Z,143.93
2022-09-30T06:21:12.538Z,201.73
2022-09-30T06:24:09.389Z,185.20
2022-09-30T06:26:37.375Z,170.60
2022-09-30T06:29:05.404Z,183.70
2022-09-30T06:31:33.507Z,169.40
2022-09-30T06:34:02.346Z,192.50
2022-09-30T06:36:33.391Z,170.90
2022-09-30T06:39:01.960Z,148.63
2022-09-30T06:41:30.059Z,154.30
2022-09-30T06:44:02.526Z,148.73
2022-09-30T06:46:32.215Z,132.77
2022-09-30T06:49:11.264Z,141.30
2022-09-30T06:51:42.043Z,142.10
2022-09-30T06:54:10.334Z,128.43
2022-09-30T06:56:38.341Z,138.17
2022-09-30T06:59:07.108Z,170.20
2022-09-30T07:01:35.209Z,146.57
2022-09-30T07:04:09.335Z,140.83
2022-09-30T07:06:38.869Z,672.47
2022-09-30T07:09:09.247Z,144.77
2022-09-30T07:11:38.312Z,129.97
2022-09-30T07:14:06.525Z,146.77
2022-09-30T07:16:34.977Z,147.33
2022-09-30T07:19:03.317Z,130.60
2022-09-30T07:21:32.405Z,138.73
2022-09-30T07:24:01.120Z,136.60
2022-09-30T07:26:31.114Z,135.73
2022-09-30T07:29:00.099Z,130.37
2022-09-30T07:31:32.904Z,144.30
2022-09-30T07:34:02.036Z,124.70
2022-09-30T07:36:33.635Z,129.30
2022-09-30T07:39:05.848Z,116.33
2022-09-30T07:41:38.130Z,124.77
2022-09-30T07:44:06.802Z,116.60
2022-09-30T07:46:38.708Z,119.67
2022-09-30T07:49:09.037Z,118.03
2022-09-30T07:51:38.881Z,126.00
2022-09-30T07:54:08.813Z,111.90
2022-09-30T07:59:28.193Z,592.22
2022-09-30T08:01:56.435Z,111.50
2022-09-30T08:04:25.989Z,98.73
2022-09-30T08:06:55.911Z,100.37
2022-09-30T08:09:26.962Z,97.93
2022-09-30T08:11:57.125Z,104.10
2022-09-30T08:14:26.415Z,104.23
2022-09-30T08:16:55.862Z,104.40
2022-09-30T08:19:25.354Z,103.93
2022-09-30T08:21:54.287Z,106.33
2022-09-30T08:24:23.192Z,108.57
2022-09-30T08:26:51.378Z,100.17
2022-09-30T08:29:35.773Z,102.07
2022-09-30T08:32:09.039Z,97.27
2022-09-30T08:34:37.186Z,97.73
2022-09-30T08:37:09.219Z,97.73
2022-09-30T08:39:37.883Z,100.40
2022-09-30T08:42:35.977Z,93.23
2022-09-30T08:45:13.401Z,97.47
2022-09-30T08:47:45.227Z,96.43
2022-09-30T08:50:17.816Z,91.93
2022-09-30T08:52:49.583Z,88.83
2022-09-30T08:55:23.338Z,89.67
2022-09-30T08:57:52.004Z,89.07
2022-09-30T09:00:22.524Z,90.13
2022-09-30T09:02:53.776Z,95.90
2022-09-30T09:05:32.075Z,94.53
2022-09-30T09:08:04.127Z,92.50
2022-09-30T09:10:39.197Z,92.30
2022-09-30T09:13:14.417Z,86.40
2022-09-30T09:15:51.985Z,92.77
2022-09-30T09:18:29.988Z,91.40
2022-09-30T09:21:00.401Z,88.73
2022-09-30T09:23:31.264Z,85.67
2022-09-30T09:26:00.136Z,76.97
2022-09-30T09:28:36.961Z,99.22
2022-09-30T09:31:06.987Z,78.77
2022-09-30T09:33:37.406Z,78.13
2022-09-30T09:36:12.883Z,73.57
2022-09-30T09:38:52.118Z,72.50
2022-09-30T09:41:27.146Z,71.03
2022-09-30T09:44:00.476Z,72.13
2022-09-30T09:46:32.214Z,67.73
2022-09-30T09:49:30.122Z,68.60
2022-09-30T09:52:31.336Z,70.47
2022-09-30T09:55:00.883Z,68.13
2022-09-30T09:57:32.475Z,67.30
2022-09-30T10:00:22.526Z,68.80
2022-09-30T10:03:03.853Z,72.20
2022-09-30T10:05:39.411Z,69.73
2022-09-30T10:08:13.274Z,70.00
2022-09-30T10:10:49.642Z,69.37
2022-09-30T10:13:19.352Z,68.33
2022-09-30T10:15:47.908Z,70.20
2022-09-30T10:18:22.663Z,66.57
2022-09-30T10:20:53.602Z,67.87
2022-09-30T10:23:23.524Z,70.77
2022-09-30T10:25:59.969Z,72.10
2022-09-30T10:28:30.189Z,71.13
2022-09-30T10:31:08.907Z,67.53
2022-09-30T10:33:44.997Z,72.40
2022-09-30T10:36:16.406Z,66.97
2022-09-30T10:38:50.658Z,66.73
2022-09-30T10:41:24.292Z,67.40
2022-09-30T10:43:54.293Z,67.33
2022-09-30T10:46:27.259Z,66.40
2022-09-30T10:48:58.934Z,66.37
2022-09-30T10:51:34.015Z,68.83
2022-09-30T10:54:02.413Z,66.90
2022-09-30T10:56:44.627Z,66.10
2022-09-30T10:59:24.134Z,69.77
2022-09-30T11:01:57.607Z,64.57
2022-09-30T11:04:33.619Z,66.27
2022-09-30T11:07:11.379Z,69.07
2022-09-30T11:09:45.917Z,65.47
2022-09-30T11:12:20.303Z,66.93
2022-09-30T11:14:54.720Z,66.17
2022-09-30T11:17:33.669Z,66.83
2022-09-30T11:20:12.909Z,66.57
2022-09-30T11:22:47.008Z,65.67
2022-09-30T11:25:16.149Z,65.07
2022-09-30T11:27:59.481Z,64.10
2022-09-30T11:30:32.551Z,65.40
2022-09-30T11:33:15.873Z,63.93
2022-09-30T11:35:52.810Z,64.43
2022-09-30T11:38:32.195Z,63.20
2022-09-30T11:41:06.386Z,64.37
2022-09-30T11:43:41.528Z,63.70
2022-09-30T11:46:30.678Z,64.67
2022-09-30T11:49:14.385Z,70.70
2022-09-30T11:51:49.649Z,63.63
2022-09-30T11:54:28.562Z,63.67
2022-09-30T11:57:02.012Z,64.70
2022-09-30T11:59:35.266Z,63.50
2022-09-30T12:02:05.431Z,64.10
2022-09-30T12:04:37.054Z,64.50
2022-09-30T12:07:12.583Z,64.43
2022-09-30T12:09:44.269Z,66.47
2022-09-30T12:12:16.710Z,64.90
2022-09-30T12:14:47.936Z,65.83
2022-09-30T12:17:21.473Z,65.20
2022-09-30T12:19:52.067Z,64.20
2022-09-30T12:22:26.137Z,65.40
2022-09-30T12:24:54.164Z,63.97
2022-09-30T12:27:25.782Z,63.40
2022-09-30T12:30:17.182Z,64.37
2022-09-30T12:33:16.522Z,69.17
2022-09-30T12:36:10.976Z,64.27
2022-09-30T12:38:54.841Z,67.10
2022-09-30T12:41:35.376Z,64.17
2022-09-30T12:44:29.628Z,65.80
2022-09-30T12:47:11.649Z,64.40
2022-09-30T12:49:41.179Z,66.40
2022-09-30T12:52:14.592Z,64.97
2022-09-30T12:54:48.854Z,66.70
2022-09-30T12:57:20.780Z,68.47
2022-09-30T12:59:52.643Z,65.67
2022-09-30T13:02:30.250Z,64.17
2022-09-30T13:05:44.704Z,64.30
2022-09-30T13:08:25.950Z,65.07
2022-09-30T13:10:59.211Z,65.57
2022-09-30T13:13:30.586Z,64.87
2022-09-30T13:16:03.292Z,64.80
2022-09-30T13:18:59.755Z,65.80
2022-09-30T13:21:27.753Z,65.67
2022-09-30T13:23:56.954Z,65.93
2022-09-30T13:26:38.597Z,65.50
2022-09-30T13:29:29.994Z,65.63
2022-09-30T13:32:05.599Z,65.17
2022-09-30T13:34:36.464Z,65.20
2022-09-30T13:37:05.706Z,64.50
2022-09-30T13:39:45.612Z,65.20
2022-09-30T13:42:22.121Z,66.43
2022-09-30T13:45:00.839Z,65.47
2022-09-30T13:47:31.669Z,64.87
2022-09-30T13:50:03.232Z,65.47
2022-09-30T13:52:34.223Z,64.90
2022-09-30T13:55:07.932Z,65.27
2022-09-30T13:57:43.645Z,67.23
2022-09-30T14:00:15.186Z,64.90
2022-09-30T14:03:08.598Z,65.57
2022-09-30T14:05:54.095Z,67.77
2022-09-30T14:08:56.486Z,65.90
2022-09-30T14:11:41.191Z,67.00
2022-09-30T14:14:26.943Z,66.83
2022-09-30T14:17:30.114Z,67.87
2022-09-30T14:20:12.215Z,72.10
2022-09-30T14:22:41.910Z,66.40
2022-09-30T14:25:14.827Z,66.47
2022-09-30T14:28:04.408Z,66.17
2022-09-30T14:30:39.565Z,65.80
2022-09-30T14:33:11.657Z,68.20
2022-09-30T14:35:41.584Z,72.23
2022-09-30T14:38:15.784Z,66.70
2022-09-30T14:40:51.022Z,65.40
2022-09-30T14:43:44.708Z,65.70
2022-09-30T14:46:27.793Z,66.57
2022-09-30T14:48:58.958Z,66.37
2022-09-30T14:51:27.471Z,69.73
2022-09-30T14:53:56.936Z,74.90
2022-09-30T14:56:30.810Z,70.30
2022-09-30T14:59:00.934Z,66.40
2022-09-30T15:01:34.546Z,64.70
2022-09-30T15:04:04.730Z,65.90
2022-09-30T15:06:35.290Z,65.17
2022-09-30T15:09:06.482Z,67.77
2022-09-30T15:11:39.512Z,65.70
2022-09-30T15:14:10.220Z,66.77
2022-09-30T15:17:05.154Z,68.43
2022-09-30T15:19:35.338Z,68.47
2022-09-30T15:22:05.234Z,66.47
2022-09-30T15:24:33.905Z,65.77
2022-09-30T15:27:02.859Z,66.40
2022-09-30T15:29:31.035Z,66.80
2022-09-30T15:32:03.155Z,65.93
2022-09-30T15:34:31.775Z,66.03
2022-09-30T15:37:06.358Z,69.57
2022-09-30T15:39:54.470Z,68.80
2022-09-30T15:42:36.181Z,67.70
2022-09-30T15:45:06.443Z,67.53
2022-09-30T15:47:54.496Z,67.80
2022-09-30T15:50:37.582Z,65.10
2022-09-30T15:53:06.219Z,66.27
2022-09-30T15:55:43.153Z,65.20
2022-09-30T15:58:33.724Z,65.00
2022-09-30T16:01:26.834Z,65.60
2022-09-30T16:04:44.704Z,65.60
2022-09-30T16:07:18.025Z,63.63
2022-09-30T16:09:48.870Z,66.17
2022-09-30T16:12:19.661Z,65.80
2022-09-30T16:14:50.033Z,64.93
2022-09-30T16:17:19.982Z,64.07
2022-09-30T16:19:52.126Z,66.60
2022-09-30T16:22:52.485Z,64.10
2022-09-30T16:25:23.441Z,66.00
2022-09-30T16:27:57.783Z,66.10
2022-09-30T16:30:26.287Z,65.40
2022-09-30T16:32:58.177Z,65.00
2022-09-30T16:35:28.164Z,65.60
2022-09-30T16:38:02.413Z,65.47
2022-09-30T16:40:32.467Z,68.07
2022-09-30T16:43:03.252Z,67.97
2022-09-30T16:45:33.886Z,67.63
2022-09-30T16:48:02.991Z,69.27
2022-09-30T16:50:35.007Z,69.10
2022-09-30T16:53:04.410Z,67.80
2022-09-30T16:55:32.870Z,66.60
2022-09-30T16:58:00.939Z,74.65
2022-09-30T17:00:29.944Z,67.47
2022-09-30T17:02:58.096Z,66.93
2022-09-30T17:05:27.619Z,74.03
2022-09-30T17:07:57.071Z,69.17
2022-09-30T17:10:29.113Z,69.70
2022-09-30T17:12:57.578Z,70.37
2022-09-30T17:15:25.667Z,68.77
2022-09-30T17:17:54.041Z,70.17
2022-09-30T17:20:23.285Z,68.47
2022-09-30T17:22:51.807Z,68.47
2022-09-30T17:25:20.163Z,68.07
2022-09-30T17:27:51.061Z,67.87
2022-09-30T17:30:19.625Z,72.20
2022-09-30T17:32:47.982Z,69.93
2022-09-30T17:35:16.780Z,70.07
2022-09-30T17:37:46.534Z,67.57
2022-09-30T17:40:32.882Z,76.00
2022-09-30T17:43:14.160Z,78.27
2022-09-30T17:45:44.499Z,72.97
2022-09-30T17:48:13.530Z,72.40
2022-09-30T17:50:44.264Z,70.83
2022-09-30T17:53:14.186Z,74.00
2022-09-30T17:55:42.278Z,73.97
2022-09-30T17:58:12.387Z,69.90
2022-09-30T18:00:40.460Z,74.80
2022-09-30T18:03:08.846Z,70.60
2022-09-30T18:05:37.206Z,70.60
2022-09-30T18:08:05.642Z,72.30
2022-09-30T18:10:33.737Z,72.10
2022-09-30T18:13:01.704Z,73.60
2022-09-30T18:15:31.185Z,71.27
2022-09-30T18:17:59.200Z,72.97
2022-09-30T18:20:27.213Z,79.53
2022-09-30T18:22:55.213Z,71.00
2022-09-30T18:25:23.825Z,72.57
2022-09-30T18:27:53.631Z,75.93
2022-09-30T18:30:21.788Z,76.90
2022-09-30T18:32:52.701Z,74.10
2022-09-30T18:35:22.742Z,69.97
2022-09-30T18:37:51.552Z,69.00
2022-09-30T18:40:21.581Z,71.70
2022-09-30T18:42:49.966Z,72.87
2022-09-30T18:45:18.548Z,74.80
2022-09-30T18:47:46.589Z,73.57
2022-09-30T18:50:17.988Z,71.13
2022-09-30T18:52:46.078Z,70.10
2022-09-30T18:55:14.152Z,69.53
2022-09-30T18:57:42.236Z,69.47
2022-09-30T19:00:11.436Z,68.87
2022-09-30T19:02:40.762Z,67.50
2022-09-30T19:05:09.396Z,68.30
2022-09-30T19:07:39.492Z,68.80
2022-09-30T19:10:09.165Z,69.70
2022-09-30T19:12:38.758Z,75.80
2022-09-30T19:15:08.991Z,72.37
2022-09-30T19:17:37.530Z,71.07
2022-09-30T19:20:06.905Z,76.77
2022-09-30T19:22:37.258Z,80.40
2022-09-30T19:25:07.878Z,70.40
2022-09-30T19:27:37.720Z,74.50
2022-09-30T19:30:06.820Z,81.13
2022-09-30T19:32:35.109Z,80.17
2022-09-30T19:35:06.458Z,78.17
2022-09-30T19:37:35.386Z,73.37
2022-09-30T19:40:19.030Z,75.30
2022-09-30T19:42:49.644Z,73.20
2022-09-30T19:45:22.794Z,72.30
2022-09-30T19:47:52.590Z,74.37
2022-09-30T19:50:20.616Z,72.70
2022-09-30T19:52:57.080Z,69.87
2022-09-30T19:55:27.597Z,72.47
2022-09-30T19:57:55.739Z,70.27
2022-09-30T20:00:24.154Z,69.83
2022-09-30T20:02:52.663Z,71.13
2022-09-30T20:05:21.562Z,74.73
2022-09-30T20:07:51.250Z,72.67
2022-09-30T20:10:19.785Z,74.30
2022-09-30T20:12:49.143Z,70.30
2022-09-30T20:15:35.007Z,75.00
2022-09-30T20:18:03.020Z,72.83
2022-09-30T20:20:37.281Z,70.43
2022-09-30T20:23:05.476Z,68.50
2022-09-30T20:25:35.295Z,70.70
2022-09-30T20:28:05.483Z,73.07
2022-09-30T20:30:34.070Z,69.80
2022-09-30T20:33:02.505Z,73.17
2022-09-30T20:35:30.546Z,74.63
2022-09-30T20:37:58.730Z,74.97
2022-09-30T20:40:26.910Z,75.10
2022-09-30T20:43:01.449Z,74.40
2022-09-30T20:45:31.496Z,71.77
2022-09-30T20:47:59.624Z,73.37
2022-09-30T20:50:36.419Z,69.77
2022-09-30T20:53:06.428Z,71.27
2022-09-30T20:55:35.982Z,71.83
2022-09-30T20:58:04.235Z,74.57
2022-09-30T21:00:34.488Z,69.47
2022-09-30T21:03:02.529Z,71.00
2022-09-30T21:05:31.943Z,69.67
2022-09-30T21:08:00.578Z,70.50
2022-09-30T21:10:29.743Z,68.80
2022-09-30T21:12:59.037Z,69.33
2022-09-30T21:15:27.754Z,69.37
2022-09-30T21:17:57.278Z,69.67
2022-09-30T21:20:25.544Z,68.60
2022-09-30T21:22:53.847Z,70.40
2022-09-30T21:25:21.996Z,68.30
2022-09-30T21:27:50.126Z,69.73
2022-09-30T21:30:19.263Z,70.93
2022-09-30T21:32:48.825Z,70.63
2022-09-30T21:35:18.352Z,69.27
2022-09-30T21:37:49.594Z,68.10
2022-09-30T21:40:18.996Z,68.93
2022-09-30T21:42:46.958Z,71.40
2022-09-30T21:45:15.089Z,69.87
2022-09-30T21:47:43.082Z,71.10
2022-09-30T21:50:11.239Z,69.47
2022-09-30T21:52:40.599Z,72.27
2022-09-30T21:55:11.826Z,70.67
2022-09-30T21:57:40.112Z,69.47
2022-09-30T22:00:09.045Z,70.67
2022-09-30T22:02:41.943Z,70.53
2022-09-30T22:05:10.325Z,71.00
2022-09-30T22:07:38.834Z,71.87
2022-09-30T22:10:09.607Z,71.87
2022-09-30T22:12:38.234Z,71.00
2022-09-30T22:15:07.147Z,72.73
2022-09-30T22:17:35.185Z,73.70
2022-09-30T22:20:03.256Z,75.30
2022-09-30T22:22:31.273Z,74.70
2022-09-30T22:24:59.273Z,75.70
2022-09-30T22:27:28.700Z,76.23
2022-09-30T22:29:56.661Z,72.07
2022-09-30T22:32:24.816Z,74.07
2022-09-30T22:35:10.439Z,73.40
2022-09-30T22:38:01.177Z,71.03
2022-09-30T22:40:29.221Z,71.10
2022-09-30T22:42:58.530Z,70.37
2022-09-30T22:45:26.529Z,72.70
2022-09-30T22:47:56.804Z,72.20
2022-09-30T22:50:26.072Z,71.17
2022-09-30T22:52:54.042Z,72.47
2022-09-30T22:55:22.255Z,72.87
2022-09-30T22:57:50.213Z,70.70
2022-09-30T23:00:19.568Z,70.77
2022-09-30T23:02:48.326Z,75.67
2022-09-30T23:05:16.583Z,72.27
2022-09-30T23:07:44.599Z,71.07
2022-09-30T23:10:12.684Z,74.90
2022-09-30T23:12:41.006Z,69.97
2022-09-30T23:15:09.586Z,70.20
2022-09-30T23:17:39.005Z,69.07
2022-09-30T23:20:08.565Z,69.07
2022-09-30T23:22:36.526Z,69.10
2022-09-30T23:25:04.817Z,68.17
2022-09-30T23:27:58.277Z,69.77
2022-09-30T23:30:26.832Z,68.33
2022-09-30T23:32:56.257Z,68.37
2022-09-30T23:35:24.248Z,68.97
2022-09-30T23:37:52.951Z,70.50
2022-09-30T23:40:20.963Z,71.53
2022-09-30T23:42:50.413Z,68.97
2022-09-30T23:45:18.368Z,70.93
2022-09-30T23:47:48.363Z,71.17
2022-09-30T23:50:17.815Z,72.30
2022-09-30T23:52:45.769Z,71.43
2022-09-30T23:55:16.839Z,75.40
2022-09-30T23:57:46.866Z,74.60
